Time;durP1;ratioP1;P1;durP2;ratioP2;P2;SDS_P1;SDS_P2;PMS_P1;PMS_P2;Temp;Humidity;BMP_temperature;BMP_pressure;BME280_temperature;BME280_humidity;BME280_pressure;Samples;Min_cycle;Max_cycle;Signal;HPM_P1;HPM_P2
2021/03/30 00:00:43;;;;;;;;;;;11.50;31.30;;;;;;6251826;23;19907;-83
2021/03/30 00:03:09;;;;;;;;;;;11.40;31.40;;;;;;6252246;23;20327;-84
2021/03/30 00:05:34;;;;;;;;;;;11.40;31.40;;;;;;6252586;23;19908;-84
2021/03/30 00:08:00;;;;;;;;;;;11.30;31.40;;;;;;6252791;23;19903;-84
2021/03/30 00:10:29;;;;;;;;;;;11.30;31.50;;;;;;6225761;23;19937;-84
2021/03/30 00:12:54;;;;;;;;;;;11.20;31.50;;;;;;6253228;23;19915;-84
2021/03/30 00:15:20;;;;;;;;;;;11.20;31.60;;;;;;6252536;23;19951;-83
2021/03/30 00:17:45;;;;;;;;;;;11.10;31.60;;;;;;6252261;23;19972;-84
2021/03/30 00:20:14;;;;;;;;;;;11.10;31.60;;;;;;6252601;23;19904;-84
2021/03/30 00:22:40;;;;;;;;;;;11.10;31.60;;;;;;6252345;23;19907;-83
2021/03/30 00:25:08;;;;;;;;;;;11.10;31.70;;;;;;6252501;23;19903;-83
2021/03/30 00:27:34;;;;;;;;;;;11.00;31.70;;;;;;6252784;23;20254;-84
2021/03/30 00:29:59;;;;;;;;;;;11.00;31.80;;;;;;6251838;23;19911;-84
2021/03/30 00:32:27;;;;;;;;;;;11.00;31.90;;;;;;6252405;23;20246;-84
2021/03/30 00:34:52;;;;;;;;;;;11.00;32.50;;;;;;6251349;23;19904;-83
2021/03/30 00:37:18;;;;;;;;;;;11.00;31.90;;;;;;6251850;23;19926;-84
2021/03/30 00:39:43;;;;;;;;;;;11.00;32.00;;;;;;6252041;23;19908;-84
2021/03/30 00:42:09;;;;;;;;;;;11.00;32.00;;;;;;6251891;23;19904;-83
2021/03/30 00:44:35;;;;;;;;;;;10.90;32.00;;;;;;6251662;23;20241;-83
2021/03/30 00:47:04;;;;;;;;;;;10.90;32.00;;;;;;6251513;23;19904;-83
2021/03/30 00:49:32;;;;;;;;;;;10.90;32.10;;;;;;6252017;23;19904;-84
2021/03/30 00:51:57;;;;;;;;;;;10.80;32.10;;;;;;6252082;23;19907;-84
2021/03/30 00:54:25;;;;;;;;;;;10.80;32.20;;;;;;6251628;23;20402;-84
2021/03/30 00:56:50;;;;;;;;;;;10.70;32.20;;;;;;6251877;23;20226;-83
2021/03/30 00:59:16;;;;;;;;;;;10.60;32.20;;;;;;6249997;23;19910;-83
2021/03/30 01:01:41;;;;;;;;;;;10.60;32.30;;;;;;6251309;23;19910;-84
2021/03/30 01:04:07;;;;;;;;;;;10.60;32.40;;;;;;6251197;23;19903;-84
2021/03/30 01:06:33;;;;;;;;;;;10.50;32.40;;;;;;6224997;23;19915;-84
2021/03/30 01:09:07;;;;;;;;;;;10.50;32.60;;;;;;6251357;23;20322;-84
2021/03/30 01:11:36;;;;;;;;;;;10.40;32.50;;;;;;6251599;23;19904;-84
2021/03/30 01:14:20;;;;;;;;;;;10.40;32.40;;;;;;6251306;23;19904;-84
2021/03/30 01:16:50;;;;;;;;;;;10.40;32.50;;;;;;6251859;23;19986;-83
2021/03/30 01:19:40;;;;;;;;;;;10.40;32.50;;;;;;6252047;23;19986;-83
2021/03/30 01:22:11;;;;;;;;;;;10.40;32.60;;;;;;6251758;23;19903;-83
2021/03/30 01:24:37;;;;;;;;;;;10.30;32.60;;;;;;6252111;23;19904;-83
2021/03/30 01:27:08;;;;;;;;;;;10.30;32.60;;;;;;6252516;23;20021;-84
2021/03/30 01:29:42;;;;;;;;;;;10.30;32.70;;;;;;6250761;23;19915;-84
2021/03/30 01:32:13;;;;;;;;;;;10.30;32.80;;;;;;6223881;23;19907;-84
2021/03/30 01:34:39;;;;;;;;;;;10.30;32.70;;;;;;6273694;22;19926;-84
2021/03/30 01:37:06;;;;;;;;;;;10.30;32.80;;;;;;6281226;22;20593;-84
2021/03/30 01:39:33;;;;;;;;;;;10.20;32.70;;;;;;6283062;22;19925;-83
2021/03/30 01:42:01;;;;;;;;;;;10.10;32.70;;;;;;6281382;22;19903;-84
2021/03/30 01:44:26;;;;;;;;;;;10.10;32.80;;;;;;6283991;22;19903;-84
2021/03/30 01:46:53;;;;;;;;;;;10.10;32.90;;;;;;6283238;22;19911;-83
2021/03/30 01:49:19;;;;;;;;;;;10.10;33.00;;;;;;6282626;22;20253;-84
2021/03/30 01:51:45;;;;;;;;;;;10.10;33.00;;;;;;6282535;22;19953;-84
2021/03/30 01:54:12;;;;;;;;;;;10.10;33.00;;;;;;6283834;22;19903;-84
2021/03/30 01:56:38;;;;;;;;;;;10.00;33.00;;;;;;6281791;22;19912;-84
2021/03/30 01:59:06;;;;;;;;;;;10.00;33.10;;;;;;6256059;22;19945;-84
2021/03/30 02:01:32;;;;;;;;;;;10.00;33.10;;;;;;6282968;22;19903;-84
2021/03/30 02:03:58;;;;;;;;;;;10.00;33.20;;;;;;6279595;22;19922;-84
2021/03/30 02:06:24;;;;;;;;;;;10.00;33.30;;;;;;6280346;22;19910;-84
2021/03/30 02:08:51;;;;;;;;;;;10.00;33.30;;;;;;6253222;22;19904;-84
2021/03/30 02:11:27;;;;;;;;;;;9.90;34.10;;;;;;6252756;22;20353;-84
2021/03/30 02:13:55;;;;;;;;;;;9.90;34.10;;;;;;6253470;22;19909;-84
2021/03/30 02:16:34;;;;;;;;;;;9.90;34.20;;;;;;6252576;22;19903;-84
2021/03/30 02:19:12;;;;;;;;;;;9.90;34.20;;;;;;6280226;22;19903;-84
2021/03/30 02:21:41;;;;;;;;;;;9.90;34.20;;;;;;6280189;22;19914;-84
2021/03/30 02:24:09;;;;;;;;;;;9.90;34.20;;;;;;6252709;22;19907;-84
2021/03/30 02:26:35;;;;;;;;;;;9.90;34.20;;;;;;6283524;22;19907;-84
2021/03/30 02:29:03;;;;;;;;;;;9.90;34.20;;;;;;6256480;22;19926;-83
2021/03/30 02:31:30;;;;;;;;;;;9.90;34.30;;;;;;6283593;22;19903;-84
2021/03/30 02:33:57;;;;;;;;;;;9.90;34.30;;;;;;6266264;22;19922;-82
2021/03/30 02:36:24;;;;;;;;;;;9.90;34.30;;;;;;6251846;23;19990;-82
2021/03/30 02:38:51;;;;;;;;;;;9.90;34.30;;;;;;6252044;23;19904;-83
2021/03/30 02:41:17;;;;;;;;;;;10.00;33.60;;;;;;6252349;23;19908;-83
2021/03/30 02:43:43;;;;;;;;;;;9.90;34.40;;;;;;6251444;23;20229;-82
2021/03/30 02:46:09;;;;;;;;;;;9.90;34.50;;;;;;6253832;23;19927;-82
2021/03/30 02:48:35;;;;;;;;;;;10.00;33.80;;;;;;6253372;23;19910;-83
2021/03/30 02:51:03;;;;;;;;;;;10.00;33.90;;;;;;6251608;23;19903;-83
2021/03/30 02:53:29;;;;;;;;;;;10.00;34.00;;;;;;6255739;23;19903;-83
2021/03/30 02:55:54;;;;;;;;;;;10.00;34.00;;;;;;6256353;23;20326;-83
2021/03/30 02:58:20;;;;;;;;;;;10.00;34.00;;;;;;6251549;23;19907;-82
2021/03/30 03:00:45;;;;;;;;;;;9.90;34.80;;;;;;6250589;23;19911;-81
2021/03/30 03:03:12;;;;;;;;;;;9.90;34.90;;;;;;6252628;23;19904;-85
2021/03/30 03:05:38;;;;;;;;;;;9.90;34.90;;;;;;6257019;23;19908;-85
2021/03/30 03:08:07;;;;;;;;;;;9.80;34.90;;;;;;6255886;23;19910;-83
2021/03/30 03:10:42;;;;;;;;;;;9.80;34.90;;;;;;6257683;23;19904;-84
2021/03/30 03:13:08;;;;;;;;;;;9.70;34.90;;;;;;6257421;23;19931;-84
2021/03/30 03:15:34;;;;;;;;;;;9.70;35.00;;;;;;6257731;23;19915;-84
2021/03/30 03:18:00;;;;;;;;;;;9.60;35.00;;;;;;6228523;23;19904;-83
2021/03/30 03:20:26;;;;;;;;;;;9.60;35.10;;;;;;6258847;23;19904;-84
2021/03/30 03:22:52;;;;;;;;;;;9.50;35.00;;;;;;6231717;23;20307;-84
2021/03/30 03:25:18;;;;;;;;;;;9.50;35.00;;;;;;6258774;23;19908;-84
2021/03/30 03:27:43;;;;;;;;;;;9.40;35.60;;;;;;6259735;23;19903;-84
2021/03/30 03:30:10;;;;;;;;;;;9.40;35.10;;;;;;6257605;23;19904;-84
2021/03/30 03:32:35;;;;;;;;;;;9.30;35.10;;;;;;6257998;23;19987;-85
2021/03/30 03:35:01;;;;;;;;;;;9.30;35.10;;;;;;6256581;23;19915;-85
2021/03/30 03:37:27;;;;;;;;;;;9.30;35.20;;;;;;6256992;23;19908;-84
2021/03/30 03:39:55;;;;;;;;;;;9.30;35.20;;;;;;6256144;23;19910;-84
2021/03/30 03:42:21;;;;;;;;;;;9.20;35.20;;;;;;6231853;23;19935;-85
2021/03/30 03:44:46;;;;;;;;;;;9.20;35.20;;;;;;6257168;23;19911;-84
2021/03/30 03:47:11;;;;;;;;;;;9.10;35.30;;;;;;6257602;23;19951;-84
2021/03/30 03:49:37;;;;;;;;;;;9.00;35.30;;;;;;6258101;23;19908;-84
2021/03/30 03:52:10;;;;;;;;;;;8.90;35.30;;;;;;6258610;23;20021;-84
2021/03/30 03:54:37;;;;;;;;;;;8.70;35.30;;;;;;6234166;23;19908;-84
2021/03/30 03:57:13;;;;;;;;;;;8.60;35.50;;;;;;6230020;23;19904;-84
2021/03/30 03:59:40;;;;;;;;;;;8.50;35.50;;;;;;6258386;23;19908;-83
2021/03/30 04:02:06;;;;;;;;;;;8.40;35.60;;;;;;6258035;23;19927;-84
2021/03/30 04:04:34;;;;;;;;;;;8.40;35.70;;;;;;6257858;23;19903;-84
2021/03/30 04:07:02;;;;;;;;;;;8.30;35.70;;;;;;6230593;23;19914;-84
2021/03/30 04:09:29;;;;;;;;;;;8.30;35.70;;;;;;6257616;23;19910;-83
2021/03/30 04:11:55;;;;;;;;;;;8.20;35.80;;;;;;6230615;23;19939;-83
2021/03/30 04:14:20;;;;;;;;;;;8.10;35.80;;;;;;6230176;23;19903;-84
2021/03/30 04:16:47;;;;;;;;;;;8.10;35.90;;;;;;6256881;23;20370;-84
2021/03/30 04:19:13;;;;;;;;;;;8.00;35.80;;;;;;6256496;23;19948;-83
2021/03/30 04:21:39;;;;;;;;;;;7.90;35.80;;;;;;6257969;23;19919;-84
2021/03/30 04:24:06;;;;;;;;;;;7.90;35.90;;;;;;6256623;23;19908;-84
2021/03/30 04:26:31;;;;;;;;;;;7.80;35.90;;;;;;6254478;23;20333;-83
2021/03/30 04:28:56;;;;;;;;;;;7.80;36.00;;;;;;6250757;23;19946;-83
2021/03/30 04:31:22;;;;;;;;;;;7.80;36.10;;;;;;6257731;23;19911;-83
2021/03/30 04:33:47;;;;;;;;;;;7.80;36.10;;;;;;6243851;23;19935;-84
2021/03/30 04:36:13;;;;;;;;;;;7.80;36.20;;;;;;6260621;23;19987;-84
2021/03/30 04:38:39;;;;;;;;;;;7.80;36.20;;;;;;6260097;23;19903;-84
2021/03/30 04:41:06;;;;;;;;;;;7.70;36.20;;;;;;6260891;22;19904;-85
2021/03/30 04:43:32;;;;;;;;;;;7.70;36.20;;;;;;6258845;23;19910;-84
2021/03/30 04:45:57;;;;;;;;;;;7.70;36.20;;;;;;6260312;22;19908;-84
2021/03/30 04:48:23;;;;;;;;;;;7.70;36.30;;;;;;6257796;23;19904;-83
2021/03/30 04:50:48;;;;;;;;;;;7.70;36.30;;;;;;6260310;23;19903;-84
2021/03/30 04:53:17;;;;;;;;;;;7.70;36.40;;;;;;6260843;23;19910;-84
2021/03/30 04:55:42;;;;;;;;;;;7.60;36.40;;;;;;6260460;23;19989;-84
2021/03/30 04:58:08;;;;;;;;;;;7.60;36.40;;;;;;6260413;23;19903;-84
2021/03/30 05:00:33;;;;;;;;;;;7.60;36.50;;;;;;6260293;23;19911;-84
2021/03/30 05:02:59;;;;;;;;;;;7.50;36.50;;;;;;6260427;23;19914;-84
2021/03/30 05:05:24;;;;;;;;;;;7.50;36.60;;;;;;6260414;23;20282;-85
2021/03/30 05:07:50;;;;;;;;;;;7.50;36.60;;;;;;6260569;23;19904;-84
2021/03/30 05:10:15;;;;;;;;;;;7.40;36.50;;;;;;6261318;23;19914;-84
2021/03/30 05:12:41;;;;;;;;;;;7.40;36.60;;;;;;6259730;23;19908;-84
2021/03/30 05:15:07;;;;;;;;;;;7.40;36.70;;;;;;6259616;23;20345;-84
2021/03/30 05:17:33;;;;;;;;;;;7.40;36.80;;;;;;6258997;22;19958;-84
2021/03/30 05:19:59;;;;;;;;;;;7.40;36.80;;;;;;6258957;22;19903;-84
2021/03/30 05:22:24;;;;;;;;;;;7.40;36.80;;;;;;6258557;23;20300;-84
2021/03/30 05:24:50;;;;;;;;;;;7.40;36.80;;;;;;6261314;23;19903;-84
2021/03/30 05:27:15;;;;;;;;;;;7.50;37.40;;;;;;6260025;23;19908;-85
2021/03/30 05:29:44;;;;;;;;;;;7.50;36.70;;;;;;6261829;23;19910;-85
2021/03/30 05:32:10;;;;;;;;;;;7.60;36.70;;;;;;6261401;23;19908;-84
2021/03/30 05:34:37;;;;;;;;;;;7.70;36.70;;;;;;6261033;22;20019;-84
2021/03/30 05:37:03;;;;;;;;;;;7.70;36.70;;;;;;6260909;23;19906;-84
2021/03/30 05:39:28;;;;;;;;;;;7.80;36.70;;;;;;6261558;23;19969;-84
2021/03/30 05:41:54;;;;;;;;;;;7.90;36.70;;;;;;6237179;23;19931;-83
2021/03/30 05:44:19;;;;;;;;;;;8.00;36.80;;;;;;6238647;23;20238;-83
2021/03/30 05:46:50;;;;;;;;;;;8.10;36.70;;;;;;6264891;23;19908;-84
2021/03/30 05:49:16;;;;;;;;;;;8.80;36.90;;;;;;6265228;23;19947;-81
2021/03/30 05:51:41;;;;;;;;;;;10.20;35.60;;;;;;6264943;23;19904;-84
2021/03/30 05:54:07;;;;;;;;;;;12.20;35.10;;;;;;6237601;23;19942;-83
2021/03/30 05:56:36;;;;;;;;;;;15.30;34.00;;;;;;6265886;23;19888;-85
2021/03/30 05:59:02;;;;;;;;;;;18.20;32.40;;;;;;6264374;23;19904;-84
2021/03/30 06:01:30;;;;;;;;;;;20.70;31.20;;;;;;6265086;23;19953;-85
2021/03/30 06:04:00;;;;;;;;;;;22.90;30.40;;;;;;6265117;23;19903;-85
2021/03/30 06:06:25;;;;;;;;;;;24.90;30.00;;;;;;6264689;23;19907;-85
2021/03/30 06:08:50;;;;;;;;;;;26.70;29.50;;;;;;6264018;23;19910;-85
2021/03/30 06:11:16;;;;;;;;;;;28.40;29.00;;;;;;6237465;23;19908;-85
2021/03/30 06:13:47;;;;;;;;;;;29.90;28.50;;;;;;6264129;23;19911;-84
2021/03/30 06:16:21;;;;;;;;;;;31.20;28.20;;;;;;6261507;23;19907;-86
2021/03/30 06:18:47;;;;;;;;;;;32.50;28.00;;;;;;6260322;23;19908;-85
2021/03/30 06:21:15;;;;;;;;;;;33.60;27.50;;;;;;6260620;23;19903;-85
2021/03/30 06:23:41;;;;;;;;;;;34.60;27.30;;;;;;6261658;23;19952;-84
2021/03/30 06:26:15;;;;;;;;;;;35.80;27.00;;;;;;6259965;23;19918;-86
2021/03/30 06:28:40;;;;;;;;;;;36.90;26.80;;;;;;6231194;23;19904;-87
2021/03/30 06:31:13;;;;;;;;;;;37.80;26.50;;;;;;6232671;23;19911;-84
2021/03/30 06:33:44;;;;;;;;;;;38.60;26.40;;;;;;6231223;23;19912;-85
2021/03/30 06:36:11;;;;;;;;;;;39.30;26.30;;;;;;6258600;23;19942;-85
2021/03/30 06:38:50;;;;;;;;;;;40.10;26.20;;;;;;6229059;23;19987;-85
2021/03/30 06:41:30;;;;;;;;;;;40.90;26.10;;;;;;6204175;23;19907;-86
2021/03/30 06:46:43;;;;;;;;;;;42.40;25.80;;;;;;6256101;23;20353;-85
2021/03/30 06:49:14;;;;;;;;;;;43.10;25.70;;;;;;6255856;23;19912;-86
2021/03/30 06:51:40;;;;;;;;;;;43.70;25.70;;;;;;6259428;23;19928;-86
2021/03/30 06:54:09;;;;;;;;;;;44.50;25.60;;;;;;6259573;23;19947;-86
2021/03/30 06:56:50;;;;;;;;;;;45.20;25.50;;;;;;6236867;23;19892;-85
2021/03/30 06:59:15;;;;;;;;;;;45.80;25.20;;;;;;6230987;23;19904;-85
2021/03/30 07:01:41;;;;;;;;;;;46.00;25.00;;;;;;6258242;23;19911;-86
2021/03/30 07:04:09;;;;;;;;;;;46.30;24.90;;;;;;6258258;23;19908;-86
2021/03/30 07:06:35;;;;;;;;;;;46.60;24.60;;;;;;6229140;23;19910;-86
2021/03/30 07:09:01;;;;;;;;;;;47.00;24.60;;;;;;6229217;23;19904;-86
2021/03/30 07:11:27;;;;;;;;;;;47.00;24.50;;;;;;6255494;23;19914;-85
2021/03/30 07:13:52;;;;;;;;;;;46.70;24.50;;;;;;6255838;23;20114;-85
2021/03/30 07:16:25;;;;;;;;;;;46.70;24.30;;;;;;6228941;23;19907;-84
2021/03/30 07:18:59;;;;;;;;;;;46.70;23.10;;;;;;6227038;23;19903;-85
2021/03/30 07:21:37;;;;;;;;;;;47.00;23.30;;;;;;6254737;23;19950;-85
2021/03/30 07:24:16;;;;;;;;;;;47.40;23.20;;;;;;6229296;23;19904;-86
2021/03/30 07:26:49;;;;;;;;;;;47.90;23.20;;;;;;6255544;23;19915;-87
2021/03/30 07:29:16;;;;;;;;;;;48.10;23.00;;;;;;6255302;23;19911;-85
2021/03/30 07:32:12;;;;;;;;;;;48.30;23.00;;;;;;6256610;23;20437;-86
2021/03/30 07:34:46;;;;;;;;;;;48.60;23.10;;;;;;6265748;22;19911;-86
2021/03/30 07:40:21;;;;;;;;;;;49.00;23.00;;;;;;6268348;22;19907;-83
2021/03/30 07:43:26;;;;;;;;;;;;;;;;;;;;;
2021/03/30 07:49:27;;;;;;;;;;;;;;;;;;;;;
2021/03/30 07:52:14;;;;;;;;;;;49.80;23.00;;;;;;6272256;22;19978;-83
2021/03/30 07:55:30;;;;;;;;;;;;;;;;;;;;;
2021/03/30 07:57:54;;;;;;;;;;;50.10;23.10;;;;;;6276973;22;19919;-82
2021/03/30 08:00:31;;;;;;;;;;;49.80;23.10;;;;;;6287543;22;20034;-84
2021/03/30 08:02:59;;;;;;;;;;;49.60;22.90;;;;;;6289743;22;19903;-83
2021/03/30 08:05:28;;;;;;;;;;;49.20;22.40;;;;;;6285427;22;19911;-83
2021/03/30 08:07:57;;;;;;;;;;;48.90;22.80;;;;;;6285999;22;19903;-83
2021/03/30 08:10:36;;;;;;;;;;;48.90;22.50;;;;;;6281384;22;19903;-83
2021/03/30 08:13:20;;;;;;;;;;;48.90;22.20;;;;;;6281495;22;19910;-83
2021/03/30 08:15:50;;;;;;;;;;;48.80;22.30;;;;;;6280644;22;19914;-83
2021/03/30 08:18:17;;;;;;;;;;;49.10;22.40;;;;;;6279557;22;19903;-83
2021/03/30 08:20:55;;;;;;;;;;;49.40;22.40;;;;;;6278394;22;19910;-85
2021/03/30 08:23:21;;;;;;;;;;;49.50;22.40;;;;;;6278790;22;19903;-84
2021/03/30 08:25:48;;;;;;;;;;;49.60;22.50;;;;;;6279109;22;19994;-83
2021/03/30 08:28:32;;;;;;;;;;;49.30;22.10;;;;;;6277993;22;19952;-84
2021/03/30 08:30:58;;;;;;;;;;;49.20;22.20;;;;;;6287407;22;19924;-86
2021/03/30 08:33:24;;;;;;;;;;;49.10;22.00;;;;;;6279677;22;19903;-84
2021/03/30 08:35:50;;;;;;;;;;;49.10;22.10;;;;;;6277961;22;19934;-84
2021/03/30 08:38:44;;;;;;;;;;;49.20;22.10;;;;;;6277639;22;19907;-85
2021/03/30 08:41:10;;;;;;;;;;;49.30;22.20;;;;;;6244327;22;19982;-86
2021/03/30 08:43:35;;;;;;;;;;;49.00;21.60;;;;;;6278207;22;19911;-84
2021/03/30 08:46:05;;;;;;;;;;;48.80;21.80;;;;;;6250071;22;19903;-84
2021/03/30 08:48:32;;;;;;;;;;;48.90;22.00;;;;;;6250389;22;19933;-85
2021/03/30 08:50:58;;;;;;;;;;;49.10;22.00;;;;;;6277110;22;19914;-85
2021/03/30 08:53:24;;;;;;;;;;;49.00;22.00;;;;;;6250590;22;19903;-84
2021/03/30 08:55:52;;;;;;;;;;;48.90;21.90;;;;;;6276991;22;19915;-85
2021/03/30 08:58:18;;;;;;;;;;;48.70;21.70;;;;;;6277729;22;19913;-85
2021/03/30 09:00:44;;;;;;;;;;;48.40;21.40;;;;;;6249949;22;20219;-85
2021/03/30 09:03:12;;;;;;;;;;;48.30;21.60;;;;;;6249131;22;19911;-85
2021/03/30 09:05:38;;;;;;;;;;;48.30;21.70;;;;;;6277367;22;19997;-85
2021/03/30 09:08:04;;;;;;;;;;;48.30;21.80;;;;;;6275913;22;19970;-84
2021/03/30 09:10:30;;;;;;;;;;;48.20;21.80;;;;;;6276795;22;19903;-86
2021/03/30 09:13:09;;;;;;;;;;;48.00;21.70;;;;;;6277503;22;19961;-84
2021/03/30 09:15:34;;;;;;;;;;;47.90;21.90;;;;;;6275565;22;20245;-84
2021/03/30 09:18:00;;;;;;;;;;;47.80;21.70;;;;;;6276384;22;19910;-85
2021/03/30 09:20:27;;;;;;;;;;;47.60;21.80;;;;;;6277977;22;19903;-85
2021/03/30 09:22:55;;;;;;;;;;;47.10;21.30;;;;;;6276172;22;19904;-85
2021/03/30 09:27:46;;;;;;;;;;;46.20;20.80;;;;;;6277288;22;19903;-85
2021/03/30 09:30:16;;;;;;;;;;;45.80;20.60;;;;;;6276551;22;19910;-85
2021/03/30 09:32:43;;;;;;;;;;;45.70;20.70;;;;;;6276993;22;19907;-85
2021/03/30 09:35:08;;;;;;;;;;;45.80;20.90;;;;;;6276783;22;20038;-85
2021/03/30 09:37:54;;;;;;;;;;;45.90;20.90;;;;;;6276823;22;19911;-85
2021/03/30 09:40:21;;;;;;;;;;;45.80;20.40;;;;;;6275474;22;19903;-85
2021/03/30 09:42:47;;;;;;;;;;;45.60;20.70;;;;;;6277111;22;19949;-85
2021/03/30 09:45:16;;;;;;;;;;;45.60;20.80;;;;;;6249471;22;19907;-85
2021/03/30 09:47:42;;;;;;;;;;;45.50;20.60;;;;;;6277398;22;19903;-85
2021/03/30 09:50:08;;;;;;;;;;;45.20;20.60;;;;;;6250113;22;20299;-86
2021/03/30 09:52:39;;;;;;;;;;;45.10;20.70;;;;;;6277644;22;19909;-84
2021/03/30 09:55:08;;;;;;;;;;;45.10;20.80;;;;;;6256565;22;19904;-86
2021/03/30 10:00:30;;;;;;;;;;;45.00;20.80;;;;;;6278956;22;19904;-84
2021/03/30 10:15:36;;;;;;;;;;;44.00;20.70;;;;;;6213239;22;19969;-85
2021/03/30 10:18:05;;;;;;;;;;;43.30;20.80;;;;;;6275159;22;19900;-85
2021/03/30 10:20:35;;;;;;;;;;;42.80;20.80;;;;;;6277720;22;19941;-84
2021/03/30 10:23:13;;;;;;;;;;;42.60;21.00;;;;;;6279318;22;19903;-84
2021/03/30 10:25:43;;;;;;;;;;;42.30;20.90;;;;;;6277729;22;19903;-84
2021/03/30 10:28:11;;;;;;;;;;;42.50;21.10;;;;;;6278216;22;20478;-84
2021/03/30 10:30:49;;;;;;;;;;;42.60;21.10;;;;;;6252144;22;19914;-83
2021/03/30 10:33:31;;;;;;;;;;;42.60;21.10;;;;;;6280239;22;19903;-84
2021/03/30 10:35:59;;;;;;;;;;;42.50;20.90;;;;;;6279870;22;19911;-84
2021/03/30 10:38:24;;;;;;;;;;;42.40;20.70;;;;;;6248879;22;19930;-84
2021/03/30 10:41:03;;;;;;;;;;;42.30;20.20;;;;;;6274048;22;19903;-84
2021/03/30 10:43:29;;;;;;;;;;;42.10;20.00;;;;;;6248825;22;20288;-84
2021/03/30 10:45:57;;;;;;;;;;;41.70;20.00;;;;;;6276315;22;19904;-84
2021/03/30 10:48:22;;;;;;;;;;;41.60;19.30;;;;;;6248921;22;19904;-84
2021/03/30 10:50:54;;;;;;;;;;;41.40;19.20;;;;;;6276197;22;19914;-84
2021/03/30 10:53:23;;;;;;;;;;;41.50;19.10;;;;;;6276820;22;19903;-84
2021/03/30 10:56:13;;;;;;;;;;;41.50;19.00;;;;;;6250519;22;19950;-84
2021/03/30 10:58:49;;;;;;;;;;;41.70;18.80;;;;;;6278704;22;19951;-84
2021/03/30 11:01:43;;;;;;;;;;;41.70;18.50;;;;;;6276766;22;19943;-84
2021/03/30 11:07:00;;;;;;;;;;;41.70;18.50;;;;;;6253937;22;19941;-84
2021/03/30 11:12:41;;;;;;;;;;;;;;;;;;;;;
2021/03/30 11:24:14;;;;;;;;;;;;;;;;;;;;;
2021/03/30 11:26:46;;;;;;;;;;;40.90;19.40;;;;;;6276360;22;20377;-84
2021/03/30 11:29:18;;;;;;;;;;;40.50;19.20;;;;;;6277519;22;19907;-84
2021/03/30 11:34:37;;;;;;;;;;;40.50;19.50;;;;;;6283558;22;19952;-84
2021/03/30 11:37:17;;;;;;;;;;;40.30;19.20;;;;;;6281526;22;19918;-84
2021/03/30 11:39:42;;;;;;;;;;;39.80;18.90;;;;;;6256057;22;19910;-83
2021/03/30 11:42:08;;;;;;;;;;;39.20;18.90;;;;;;6256727;22;19982;-84
2021/03/30 11:44:36;;;;;;;;;;;39.00;19.10;;;;;;6283532;22;20241;-84
2021/03/30 11:47:02;;;;;;;;;;;39.00;19.20;;;;;;6283393;22;20257;-85
2021/03/30 11:49:29;;;;;;;;;;;38.90;19.20;;;;;;6280248;22;19911;-84
2021/03/30 11:51:56;;;;;;;;;;;38.70;19.00;;;;;;6283724;22;19903;-84
2021/03/30 11:54:24;;;;;;;;;;;38.60;19.10;;;;;;6282411;22;19907;-83
2021/03/30 11:56:50;;;;;;;;;;;38.60;19.10;;;;;;6279840;22;19911;-84
2021/03/30 11:59:18;;;;;;;;;;;38.90;19.20;;;;;;6252873;22;20284;-83
2021/03/30 12:01:46;;;;;;;;;;;38.80;19.10;;;;;;6281421;22;19993;-84
2021/03/30 12:04:20;;;;;;;;;;;38.80;19.00;;;;;;6280908;22;19903;-84
2021/03/30 12:06:53;;;;;;;;;;;38.50;18.90;;;;;;6279588;22;20375;-84
2021/03/30 12:09:19;;;;;;;;;;;38.40;19.10;;;;;;6279760;22;20005;-84
2021/03/30 12:11:47;;;;;;;;;;;38.60;19.20;;;;;;6278213;22;20326;-84
2021/03/30 12:14:13;;;;;;;;;;;38.50;19.10;;;;;;6278303;22;19978;-84
2021/03/30 12:16:39;;;;;;;;;;;38.60;19.10;;;;;;6278345;22;20376;-84
2021/03/30 12:19:05;;;;;;;;;;;38.80;19.00;;;;;;6251107;22;19911;-84
2021/03/30 12:21:30;;;;;;;;;;;38.60;18.90;;;;;;6279900;22;19910;-84
2021/03/30 12:23:56;;;;;;;;;;;38.30;18.80;;;;;;6279435;22;19903;-84
2021/03/30 12:26:21;;;;;;;;;;;38.30;19.00;;;;;;6279596;22;19904;-84
2021/03/30 12:28:47;;;;;;;;;;;38.30;18.70;;;;;;6278692;22;19945;-83
2021/03/30 12:31:12;;;;;;;;;;;38.10;18.90;;;;;;6278154;22;20321;-84
2021/03/30 12:33:38;;;;;;;;;;;38.20;18.80;;;;;;6280738;22;20405;-84
2021/03/30 12:36:04;;;;;;;;;;;37.90;18.60;;;;;;6281200;22;19907;-84
2021/03/30 12:38:30;;;;;;;;;;;37.60;18.70;;;;;;6253140;22;19915;-83
2021/03/30 12:40:55;;;;;;;;;;;37.50;18.70;;;;;;6281212;22;19918;-84
2021/03/30 12:43:21;;;;;;;;;;;37.30;18.60;;;;;;6281239;22;19945;-84
2021/03/30 12:45:46;;;;;;;;;;;36.80;18.40;;;;;;6280322;22;19903;-84
2021/03/30 12:48:13;;;;;;;;;;;36.70;18.80;;;;;;6280103;22;19903;-83
2021/03/30 12:50:41;;;;;;;;;;;36.80;18.90;;;;;;6279520;22;19911;-84
2021/03/30 12:53:10;;;;;;;;;;;37.00;18.90;;;;;;6252027;22;19904;-84
2021/03/30 12:55:35;;;;;;;;;;;36.90;18.90;;;;;;6278717;22;19912;-84
2021/03/30 12:58:01;;;;;;;;;;;36.80;19.10;;;;;;6253323;22;19953;-84
2021/03/30 13:00:34;;;;;;;;;;;36.50;19.00;;;;;;6281572;22;20248;-83
2021/03/30 13:02:59;;;;;;;;;;;36.20;19.10;;;;;;6254117;22;19949;-84
2021/03/30 13:05:27;;;;;;;;;;;36.00;19.20;;;;;;6279114;22;19903;-84
2021/03/30 13:07:52;;;;;;;;;;;36.00;19.30;;;;;;6252054;22;20146;-84
2021/03/30 13:10:19;;;;;;;;;;;35.80;19.30;;;;;;6279383;22;19911;-83
2021/03/30 13:12:51;;;;;;;;;;;35.80;19.40;;;;;;6280053;22;19945;-84
2021/03/30 13:15:17;;;;;;;;;;;35.80;19.50;;;;;;6252384;22;19907;-84
2021/03/30 13:17:45;;;;;;;;;;;35.80;19.60;;;;;;6279831;22;19903;-85
2021/03/30 13:20:13;;;;;;;;;;;35.50;19.60;;;;;;6280206;22;19904;-83
2021/03/30 13:22:41;;;;;;;;;;;35.30;19.80;;;;;;6280514;22;19903;-83
2021/03/30 13:25:07;;;;;;;;;;;35.00;19.90;;;;;;6279995;22;19982;-84
2021/03/30 13:27:32;;;;;;;;;;;35.00;20.00;;;;;;6279740;22;19910;-84
2021/03/30 13:29:58;;;;;;;;;;;34.60;19.80;;;;;;6279483;22;19907;-83
2021/03/30 13:32:23;;;;;;;;;;;34.30;19.90;;;;;;6253152;22;19910;-84
2021/03/30 13:34:51;;;;;;;;;;;34.30;20.10;;;;;;6279196;22;19911;-83
2021/03/30 13:37:18;;;;;;;;;;;34.30;20.10;;;;;;6279169;22;19930;-83
2021/03/30 13:39:48;;;;;;;;;;;34.40;20.30;;;;;;6279376;22;19927;-83
2021/03/30 13:42:16;;;;;;;;;;;34.30;20.30;;;;;;6279707;22;19957;-83
2021/03/30 13:44:42;;;;;;;;;;;33.90;20.40;;;;;;6279843;22;19983;-83
2021/03/30 13:47:35;;;;;;;;;;;;;;;;;;;;;
2021/03/30 13:50:06;;;;;;;;;;;33.60;20.70;;;;;;6279414;22;19986;-83
2021/03/30 13:52:41;;;;;;;;;;;33.40;20.60;;;;;;6278805;22;19904;-84
2021/03/30 14:01:55;;;;;;;;;;;;;;;;;;;;;
2021/03/30 14:04:43;;;;;;;;;;;33.30;20.90;;;;;;6275115;22;19946;-82
2021/03/30 14:07:29;;;;;;;;;;;33.30;20.90;;;;;;6279666;22;19969;-84
2021/03/30 14:10:22;;;;;;;;;;;;;;;;;;;;;
2021/03/30 14:13:30;;;;;;;;;;;32.90;20.50;;;;;;6277508;22;19950;-83
2021/03/30 14:16:24;;;;;;;;;;;32.80;20.40;;;;;;6256295;22;19913;-84
2021/03/30 14:21:52;;;;;;;;;;;32.30;20.60;;;;;;6293347;22;19907;-83
2021/03/30 14:24:26;;;;;;;;;;;32.20;20.70;;;;;;6283351;22;20526;-83
2021/03/30 14:30:19;;;;;;;;;;;31.70;20.60;;;;;;6263362;22;19993;-83
2021/03/30 14:35:32;;;;;;;;;;;31.20;20.50;;;;;;6257428;22;19911;-82
2021/03/30 14:40:46;;;;;;;;;;;31.00;20.70;;;;;;6265978;22;19911;-85
2021/03/30 14:58:53;;;;;;;;;;;30.50;21.00;;;;;;6284719;22;19907;-83
2021/03/30 15:04:50;;;;;;;;;;;30.10;20.90;;;;;;6295034;22;20349;-83
2021/03/30 15:25:40;;;;;;;;;;;28.40;21.70;;;;;;6283057;22;19907;-82
2021/03/30 15:34:38;;;;;;;;;;;28.20;21.90;;;;;;6258713;22;19907;-82
2021/03/30 15:40:13;;;;;;;;;;;28.00;21.90;;;;;;6255840;22;20321;-83
2021/03/30 15:42:39;;;;;;;;;;;27.90;22.00;;;;;;6280271;22;19978;-82
2021/03/30 15:47:30;;;;;;;;;;;27.80;22.10;;;;;;6286091;22;19910;-84
2021/03/30 15:49:57;;;;;;;;;;;27.80;22.20;;;;;;6261431;22;20305;-83
2021/03/30 15:52:23;;;;;;;;;;;27.70;22.20;;;;;;6286958;22;19982;-82
2021/03/30 15:57:23;;;;;;;;;;;27.50;22.20;;;;;;6283113;22;19938;-83
2021/03/30 15:59:49;;;;;;;;;;;27.40;22.30;;;;;;6281069;22;20238;-83
2021/03/30 16:02:16;;;;;;;;;;;27.40;22.40;;;;;;6280714;22;19910;-82
2021/03/30 16:04:47;;;;;;;;;;;27.40;22.50;;;;;;6253450;22;19903;-83
2021/03/30 16:07:13;;;;;;;;;;;27.30;22.50;;;;;;6280223;22;19903;-83
2021/03/30 16:09:40;;;;;;;;;;;27.30;22.60;;;;;;6283513;22;19910;-83
2021/03/30 16:12:06;;;;;;;;;;;27.20;22.60;;;;;;6258064;22;19903;-83
2021/03/30 16:14:32;;;;;;;;;;;27.20;22.70;;;;;;6281144;22;19910;-84
2021/03/30 16:16:57;;;;;;;;;;;27.10;22.80;;;;;;6283156;22;19907;-84
2021/03/30 16:19:23;;;;;;;;;;;27.00;22.80;;;;;;6282396;22;19903;-84
2021/03/30 16:21:51;;;;;;;;;;;27.00;22.90;;;;;;6283205;22;19907;-85
2021/03/30 16:24:16;;;;;;;;;;;26.90;22.90;;;;;;6279992;22;20298;-85
2021/03/30 16:26:43;;;;;;;;;;;26.90;23.00;;;;;;6281581;22;19903;-84
2021/03/30 16:29:16;;;;;;;;;;;26.80;23.00;;;;;;6253822;22;19899;-84
2021/03/30 16:31:42;;;;;;;;;;;26.80;23.00;;;;;;6279024;22;20321;-84
2021/03/30 16:34:11;;;;;;;;;;;26.80;23.10;;;;;;6254833;22;19899;-86